sensor_id;sensor_type;location;lat;lon;timestamp;pressure;altitude;pressure_sealevel;temperature;humidity
63006;BME280;53704;52.532;6.426;2023-05-13T00:01:40;102118.53;;;12.06;100.00
63006;BME280;53704;52.532;6.426;2023-05-13T00:04:07;102109.47;;;12.07;100.00
63006;BME280;53704;52.532;6.426;2023-05-13T00:06:33;102110.16;;;12.00;100.00
63006;BME280;53704;52.532;6.426;2023-05-13T00:08:59;102111.03;;;12.00;100.00
63006;BME280;53704;52.532;6.426;2023-05-13T00:11:25;102103.75;;;11.91;100.00
63006;BME280;53704;52.532;6.426;2023-05-13T00:13:50;102105.84;;;11.87;100.00
63006;BME280;53704;52.532;6.426;2023-05-13T00:16:16;102107.56;;;11.69;100.00
63006;BME280;53704;52.532;6.426;2023-05-13T00:18:41;102107.84;;;11.75;100.00
63006;BME280;53704;52.532;6.426;2023-05-13T00:21:07;102100.88;;;11.73;100.00
63006;BME280;53704;52.532;6.426;2023-05-13T00:23:32;102110.97;;;11.71;100.00
63006;BME280;53704;52.532;6.426;2023-05-13T00:25:59;102107.97;;;11.64;100.00
63006;BME280;53704;52.532;6.426;2023-05-13T00:28:24;102104.13;;;11.57;100.00
63006;BME280;53704;52.532;6.426;2023-05-13T00:30:50;102105.28;;;11.54;100.00
63006;BME280;53704;52.532;6.426;2023-05-13T00:33:15;102100.28;;;11.50;100.00
63006;BME280;53704;52.532;6.426;2023-05-13T00:35:41;102105.81;;;11.48;100.00
63006;BME280;53704;52.532;6.426;2023-05-13T00:38:07;102106.25;;;11.53;100.00
63006;BME280;53704;52.532;6.426;2023-05-13T00:40:36;102111.03;;;11.40;100.00
63006;BME280;53704;52.532;6.426;2023-05-13T00:43:01;102103.97;;;11.39;100.00
63006;BME280;53704;52.532;6.426;2023-05-13T00:45:27;102108.78;;;11.35;100.00
63006;BME280;53704;52.532;6.426;2023-05-13T00:47:53;102108.72;;;11.26;100.00
63006;BME280;53704;52.532;6.426;2023-05-13T00:50:19;102106.50;;;11.31;100.00
63006;BME280;53704;52.532;6.426;2023-05-13T00:52:45;102101.66;;;11.25;100.00
63006;BME280;53704;52.532;6.426;2023-05-13T00:55:10;102113.09;;;11.17;100.00
63006;BME280;53704;52.532;6.426;2023-05-13T00:57:37;102101.19;;;11.19;100.00
63006;BME280;53704;52.532;6.426;2023-05-13T01:00:04;102111.69;;;11.22;100.00
63006;BME280;53704;52.532;6.426;2023-05-13T01:07:48;102108.22;;;11.01;100.00
63006;BME280;53704;52.532;6.426;2023-05-13T01:13:07;102110.81;;;11.12;100.00
63006;BME280;53704;52.532;6.426;2023-05-13T01:15:44;102100.97;;;11.01;100.00
63006;BME280;53704;52.532;6.426;2023-05-13T01:18:15;102108.63;;;10.96;100.00
63006;BME280;53704;52.532;6.426;2023-05-13T01:20:43;102105.81;;;10.98;100.00
63006;BME280;53704;52.532;6.426;2023-05-13T01:23:10;102110.44;;;10.96;100.00
63006;BME280;53704;52.532;6.426;2023-05-13T01:25:36;102111.00;;;10.90;100.00
63006;BME280;53704;52.532;6.426;2023-05-13T01:28:02;102106.81;;;11.07;100.00
63006;BME280;53704;52.532;6.426;2023-05-13T01:30:28;102103.94;;;10.98;100.00
63006;BME280;53704;52.532;6.426;2023-05-13T01:32:53;102108.50;;;10.77;100.00
63006;BME280;53704;52.532;6.426;2023-05-13T01:35:22;102107.34;;;10.70;100.00
63006;BME280;53704;52.532;6.426;2023-05-13T01:37:49;102109.00;;;10.82;100.00
63006;BME280;53704;52.532;6.426;2023-05-13T01:40:15;102116.00;;;10.73;100.00
63006;BME280;53704;52.532;6.426;2023-05-13T01:42:41;102111.91;;;10.69;100.00
63006;BME280;53704;52.532;6.426;2023-05-13T01:45:07;102117.28;;;10.69;100.00
63006;BME280;53704;52.532;6.426;2023-05-13T01:47:33;102113.13;;;10.65;100.00
63006;BME280;53704;52.532;6.426;2023-05-13T01:49:58;102111.94;;;10.58;100.00
63006;BME280;53704;52.532;6.426;2023-05-13T01:52:23;102102.41;;;10.75;100.00
63006;BME280;53704;52.532;6.426;2023-05-13T01:54:49;102103.06;;;10.67;100.00
63006;BME280;53704;52.532;6.426;2023-05-13T01:57:14;102106.50;;;10.48;100.00
63006;BME280;53704;52.532;6.426;2023-05-13T01:59:40;102107.38;;;10.48;100.00
63006;BME280;53704;52.532;6.426;2023-05-13T02:02:05;102105.94;;;10.44;100.00
63006;BME280;53704;52.532;6.426;2023-05-13T02:04:31;102103.94;;;10.46;100.00
63006;BME280;53704;52.532;6.426;2023-05-13T02:06:56;102105.75;;;10.36;100.00
63006;BME280;53704;52.532;6.426;2023-05-13T02:09:21;102099.84;;;10.42;100.00
63006;BME280;53704;52.532;6.426;2023-05-13T02:11:47;102113.94;;;10.35;100.00
63006;BME280;53704;52.532;6.426;2023-05-13T02:14:12;102111.03;;;10.26;100.00
63006;BME280;53704;52.532;6.426;2023-05-13T02:16:38;102112.03;;;10.46;100.00
63006;BME280;53704;52.532;6.426;2023-05-13T02:19:03;102113.03;;;10.13;100.00
63006;BME280;53704;52.532;6.426;2023-05-13T02:21:29;102109.41;;;10.03;100.00
63006;BME280;53704;52.532;6.426;2023-05-13T02:23:54;102119.69;;;9.98;100.00
63006;BME280;53704;52.532;6.426;2023-05-13T02:26:20;102122.44;;;10.19;100.00
63006;BME280;53704;52.532;6.426;2023-05-13T02:28:46;102121.22;;;10.11;100.00
63006;BME280;53704;52.532;6.426;2023-05-13T02:31:12;102121.69;;;10.17;100.00
63006;BME280;53704;52.532;6.426;2023-05-13T02:33:37;102122.22;;;10.10;100.00
63006;BME280;53704;52.532;6.426;2023-05-13T02:36:03;102116.28;;;10.28;100.00
63006;BME280;53704;52.532;6.426;2023-05-13T02:38:28;102121.56;;;10.18;100.00
63006;BME280;53704;52.532;6.426;2023-05-13T02:40:54;102115.34;;;10.18;100.00
63006;BME280;53704;52.532;6.426;2023-05-13T02:43:19;102122.22;;;10.10;100.00
63006;BME280;53704;52.532;6.426;2023-05-13T02:45:46;102113.38;;;9.87;100.00
63006;BME280;53704;52.532;6.426;2023-05-13T02:48:12;102113.38;;;9.87;100.00
63006;BME280;53704;52.532;6.426;2023-05-13T02:50:37;102106.78;;;9.80;100.00
63006;BME280;53704;52.532;6.426;2023-05-13T02:53:04;102105.91;;;9.91;100.00
63006;BME280;53704;52.532;6.426;2023-05-13T02:55:30;102101.13;;;9.94;100.00
63006;BME280;53704;52.532;6.426;2023-05-13T02:57:55;102099.56;;;9.92;100.00
63006;BME280;53704;52.532;6.426;2023-05-13T03:00:21;102105.84;;;10.02;100.00
63006;BME280;53704;52.532;6.426;2023-05-13T03:02:46;102099.50;;;10.03;100.00
63006;BME280;53704;52.532;6.426;2023-05-13T03:05:11;102098.69;;;9.91;100.00
63006;BME280;53704;52.532;6.426;2023-05-13T03:07:37;102097.84;;;9.91;100.00
63006;BME280;53704;52.532;6.426;2023-05-13T03:10:02;102104.47;;;9.87;100.00
63006;BME280;53704;52.532;6.426;2023-05-13T03:12:28;102108.25;;;9.84;100.00
63006;BME280;53704;52.532;6.426;2023-05-13T03:14:53;102105.41;;;9.97;100.00
63006;BME280;53704;52.532;6.426;2023-05-13T03:17:19;102100.56;;;9.80;100.00
63006;BME280;53704;52.532;6.426;2023-05-13T03:19:44;102106.72;;;9.70;100.00
63006;BME280;53704;52.532;6.426;2023-05-13T03:22:10;102101.78;;;9.75;100.00
63006;BME280;53704;52.532;6.426;2023-05-13T03:24:35;102095.06;;;9.81;100.00
63006;BME280;53704;52.532;6.426;2023-05-13T03:27:00;102097.09;;;9.68;100.00
63006;BME280;53704;52.532;6.426;2023-05-13T03:29:26;102099.72;;;9.79;100.00
63006;BME280;53704;52.532;6.426;2023-05-13T03:31:52;102097.53;;;9.73;100.00
63006;BME280;53704;52.532;6.426;2023-05-13T03:34:17;102101.03;;;9.85;100.00
63006;BME280;53704;52.532;6.426;2023-05-13T03:36:43;102100.69;;;9.78;100.00
63006;BME280;53704;52.532;6.426;2023-05-13T03:39:08;102101.53;;;9.90;100.00
63006;BME280;53704;52.532;6.426;2023-05-13T03:41:34;102099.34;;;9.72;100.00
63006;BME280;53704;52.532;6.426;2023-05-13T03:44:00;102103.44;;;9.67;100.00
63006;BME280;53704;52.532;6.426;2023-05-13T03:46:25;102099.22;;;9.74;100.00
63006;BME280;53704;52.532;6.426;2023-05-13T03:48:54;102098.84;;;9.78;100.00
63006;BME280;53704;52.532;6.426;2023-05-13T03:51:20;102106.84;;;9.69;100.00
63006;BME280;53704;52.532;6.426;2023-05-13T03:53:46;102107.22;;;9.64;100.00
63006;BME280;53704;52.532;6.426;2023-05-13T03:56:12;102106.38;;;9.64;100.00
63006;BME280;53704;52.532;6.426;2023-05-13T03:58:38;102113.22;;;9.56;100.00
63006;BME280;53704;52.532;6.426;2023-05-13T04:01:03;102117.75;;;9.56;100.00
63006;BME280;53704;52.532;6.426;2023-05-13T04:03:29;102102.47;;;9.68;100.00
63006;BME280;53704;52.532;6.426;2023-05-13T04:05:55;102110.78;;;9.53;100.00
63006;BME280;53704;52.532;6.426;2023-05-13T04:08:20;102110.56;;;9.45;100.00
63006;BME280;53704;52.532;6.426;2023-05-13T04:10:46;102113.38;;;9.44;100.00
63006;BME280;53704;52.532;6.426;2023-05-13T04:13:11;102117.28;;;9.28;100.00
63006;BME280;53704;52.532;6.426;2023-05-13T04:15:37;102123.41;;;9.30;100.00
63006;BME280;53704;52.532;6.426;2023-05-13T04:18:02;102113.88;;;9.26;100.00
63006;BME280;53704;52.532;6.426;2023-05-13T04:20:27;102121.44;;;9.32;100.00
63006;BME280;53704;52.532;6.426;2023-05-13T04:22:53;102122.44;;;9.43;100.00
63006;BME280;53704;52.532;6.426;2023-05-13T04:25:19;102132.56;;;9.39;100.00
63006;BME280;53704;52.532;6.426;2023-05-13T04:27:44;102132.69;;;9.37;100.00
63006;BME280;53704;52.532;6.426;2023-05-13T04:30:11;102134.53;;;9.26;100.00
63006;BME280;53704;52.532;6.426;2023-05-13T04:32:37;102140.41;;;9.19;100.00
63006;BME280;53704;52.532;6.426;2023-05-13T04:35:03;102138.91;;;9.15;100.00
63006;BME280;53704;52.532;6.426;2023-05-13T04:37:29;102141.13;;;9.10;100.00
63006;BME280;53704;52.532;6.426;2023-05-13T04:39:54;102141.13;;;9.10;100.00
63006;BME280;53704;52.532;6.426;2023-05-13T04:42:27;102145.16;;;9.16;100.00
63006;BME280;53704;52.532;6.426;2023-05-13T04:44:53;102144.94;;;9.19;100.00
63006;BME280;53704;52.532;6.426;2023-05-13T04:47:18;102140.66;;;9.16;100.00
63006;BME280;53704;52.532;6.426;2023-05-13T04:49:43;102144.19;;;9.05;100.00
63006;BME280;53704;52.532;6.426;2023-05-13T04:52:09;102153.84;;;9.08;100.00
63006;BME280;53704;52.532;6.426;2023-05-13T04:54:37;102147.84;;;9.16;100.00
63006;BME280;53704;52.532;6.426;2023-05-13T04:57:03;102158.59;;;9.16;100.00
63006;BME280;53704;52.532;6.426;2023-05-13T04:59:29;102158.34;;;9.08;100.00
63006;BME280;53704;52.532;6.426;2023-05-13T05:01:55;102156.53;;;9.19;100.00
63006;BME280;53704;52.532;6.426;2023-05-13T05:04:20;102158.13;;;9.22;100.00
63006;BME280;53704;52.532;6.426;2023-05-13T05:06:46;102171.03;;;9.28;100.00
63006;BME280;53704;52.532;6.426;2023-05-13T05:09:12;102158.47;;;9.40;100.00
63006;BME280;53704;52.532;6.426;2023-05-13T05:11:37;102169.81;;;9.44;100.00
63006;BME280;53704;52.532;6.426;2023-05-13T05:14:02;102165.06;;;9.47;100.00
63006;BME280;53704;52.532;6.426;2023-05-13T05:16:28;102163.09;;;9.60;100.00
63006;BME280;53704;52.532;6.426;2023-05-13T05:18:53;102168.34;;;9.62;100.00
63006;BME280;53704;52.532;6.426;2023-05-13T05:21:19;102174.69;;;9.61;100.00
63006;BME280;53704;52.532;6.426;2023-05-13T05:23:44;102171.25;;;9.70;100.00
63006;BME280;53704;52.532;6.426;2023-05-13T05:26:10;102175.16;;;9.77;100.00
63006;BME280;53704;52.532;6.426;2023-05-13T05:28:35;102172.94;;;9.83;100.00
63006;BME280;53704;52.532;6.426;2023-05-13T05:31:02;102175.25;;;9.87;100.00
63006;BME280;53704;52.532;6.426;2023-05-13T05:33:27;102181.19;;;10.02;100.00
63006;BME280;53704;52.532;6.426;2023-05-13T05:35:56;102179.13;;;10.06;100.00
63006;BME280;53704;52.532;6.426;2023-05-13T05:38:21;102174.53;;;10.18;100.00
63006;BME280;53704;52.532;6.426;2023-05-13T05:40:49;102175.25;;;10.20;100.00
63006;BME280;53704;52.532;6.426;2023-05-13T05:43:14;102172.81;;;10.28;100.00
63006;BME280;53704;52.532;6.426;2023-05-13T05:45:40;102174.22;;;10.32;100.00
63006;BME280;53704;52.532;6.426;2023-05-13T05:48:06;102179.25;;;10.37;100.00
63006;BME280;53704;52.532;6.426;2023-05-13T05:50:32;102184.25;;;10.41;100.00
63006;BME280;53704;52.532;6.426;2023-05-13T05:52:58;102174.34;;;10.42;100.00
63006;BME280;53704;52.532;6.426;2023-05-13T05:55:24;102187.41;;;10.46;100.00
63006;BME280;53704;52.532;6.426;2023-05-13T05:57:51;102195.75;;;10.43;100.00
63006;BME280;53704;52.532;6.426;2023-05-13T06:00:17;102187.03;;;10.51;100.00
63006;BME280;53704;52.532;6.426;2023-05-13T06:02:43;102196.44;;;10.57;100.00
63006;BME280;53704;52.532;6.426;2023-05-13T06:05:08;102192.22;;;10.64;100.00
63006;BME280;53704;52.532;6.426;2023-05-13T06:07:34;102195.91;;;10.63;100.00
63006;BME280;53704;52.532;6.426;2023-05-13T06:09:59;102196.50;;;10.66;100.00
63006;BME280;53704;52.532;6.426;2023-05-13T06:12:25;102199.31;;;10.86;100.00
63006;BME280;53704;52.532;6.426;2023-05-13T06:14:50;102192.09;;;10.86;100.00
63006;BME280;53704;52.532;6.426;2023-05-13T06:17:16;102202.34;;;10.93;100.00
63006;BME280;53704;52.532;6.426;2023-05-13T06:19:41;102202.22;;;10.94;100.00
63006;BME280;53704;52.532;6.426;2023-05-13T06:22:10;102202.72;;;11.09;100.00
63006;BME280;53704;52.532;6.426;2023-05-13T06:24:36;102192.38;;;11.14;100.00
63006;BME280;53704;52.532;6.426;2023-05-13T06:27:03;102196.72;;;11.27;100.00
63006;BME280;53704;52.532;6.426;2023-05-13T06:29:29;102204.38;;;11.31;100.00
63006;BME280;53704;52.532;6.426;2023-05-13T06:31:55;102202.44;;;11.43;100.00
63006;BME280;53704;52.532;6.426;2023-05-13T06:34:20;102196.22;;;11.52;100.00
63006;BME280;53704;52.532;6.426;2023-05-13T06:36:46;102190.72;;;11.64;100.00
63006;BME280;53704;52.532;6.426;2023-05-13T06:39:11;102200.97;;;11.70;100.00
63006;BME280;53704;52.532;6.426;2023-05-13T06:41:38;102205.38;;;11.71;100.00
63006;BME280;53704;52.532;6.426;2023-05-13T06:44:04;102204.41;;;11.72;100.00
63006;BME280;53704;52.532;6.426;2023-05-13T06:46:29;102185.69;;;11.80;100.00
63006;BME280;53704;52.532;6.426;2023-05-13T06:48:55;102191.69;;;11.93;100.00
63006;BME280;53704;52.532;6.426;2023-05-13T06:51:21;102193.84;;;12.00;100.00
63006;BME280;53704;52.532;6.426;2023-05-13T06:53:47;102189.03;;;12.13;100.00
63006;BME280;53704;52.532;6.426;2023-05-13T06:56:12;102191.16;;;12.39;100.00
63006;BME280;53704;52.532;6.426;2023-05-13T06:58:38;102190.03;;;12.51;100.00
63006;BME280;53704;52.532;6.426;2023-05-13T07:01:03;102196.53;;;12.58;100.00
63006;BME280;53704;52.532;6.426;2023-05-13T07:03:28;102194.41;;;12.72;100.00
63006;BME280;53704;52.532;6.426;2023-05-13T07:05:54;102189.75;;;12.54;100.00
63006;BME280;53704;52.532;6.426;2023-05-13T07:08:19;102192.84;;;12.59;100.00
63006;BME280;53704;52.532;6.426;2023-05-13T07:10:45;102194.25;;;12.83;100.00
63006;BME280;53704;52.532;6.426;2023-05-13T07:13:10;102189.06;;;12.99;100.00
63006;BME280;53704;52.532;6.426;2023-05-13T07:15:36;102190.72;;;13.20;100.00
63006;BME280;53704;52.532;6.426;2023-05-13T07:18:02;102189.72;;;13.21;100.00
63006;BME280;53704;52.532;6.426;2023-05-13T07:20:27;102189.47;;;13.52;100.00
63006;BME280;53704;52.532;6.426;2023-05-13T07:22:53;102190.28;;;13.62;100.00
63006;BME280;53704;52.532;6.426;2023-05-13T07:25:18;102190.78;;;13.75;100.00
63006;BME280;53704;52.532;6.426;2023-05-13T07:27:44;102182.16;;;13.90;100.00
63006;BME280;53704;52.532;6.426;2023-05-13T07:30:10;102189.78;;;13.94;100.00
63006;BME280;53704;52.532;6.426;2023-05-13T07:32:37;102187.50;;;14.18;100.00
63006;BME280;53704;52.532;6.426;2023-05-13T07:35:03;102192.06;;;14.35;100.00
63006;BME280;53704;52.532;6.426;2023-05-13T07:37:28;102190.44;;;14.24;100.00
63006;BME280;53704;52.532;6.426;2023-05-13T07:39:54;102192.13;;;14.43;100.00
63006;BME280;53704;52.532;6.426;2023-05-13T07:42:19;102189.38;;;14.53;100.00
63006;BME280;53704;52.532;6.426;2023-05-13T07:44:45;102190.19;;;14.54;100.00
63006;BME280;53704;52.532;6.426;2023-05-13T07:47:10;102187.00;;;14.76;100.00
63006;BME280;53704;52.532;6.426;2023-05-13T07:49:36;102191.53;;;14.94;100.00
63006;BME280;53704;52.532;6.426;2023-05-13T07:52:02;102189.03;;;15.00;100.00
63006;BME280;53704;52.532;6.426;2023-05-13T07:54:27;102190.91;;;15.26;100.00
63006;BME280;53704;52.532;6.426;2023-05-13T07:56:53;102197.91;;;15.37;100.00
63006;BME280;53704;52.532;6.426;2023-05-13T07:59:18;102197.31;;;15.60;100.00
63006;BME280;53704;52.532;6.426;2023-05-13T08:01:44;102199.69;;;15.54;100.00
63006;BME280;53704;52.532;6.426;2023-05-13T08:04:09;102194.59;;;15.60;100.00
63006;BME280;53704;52.532;6.426;2023-05-13T08:06:35;102203.25;;;15.63;100.00
63006;BME280;53704;52.532;6.426;2023-05-13T08:09:00;102198.72;;;15.72;100.00
63006;BME280;53704;52.532;6.426;2023-05-13T08:11:27;102196.09;;;15.88;100.00
63006;BME280;53704;52.532;6.426;2023-05-13T08:13:52;102189.66;;;15.98;100.00
63006;BME280;53704;52.532;6.426;2023-05-13T08:16:17;102193.78;;;16.35;100.00
63006;BME280;53704;52.532;6.426;2023-05-13T08:18:43;102195.31;;;16.54;100.00
63006;BME280;53704;52.532;6.426;2023-05-13T08:21:08;102200.25;;;16.50;100.00
63006;BME280;53704;52.532;6.426;2023-05-13T08:23:35;102191.91;;;16.68;100.00
63006;BME280;53704;52.532;6.426;2023-05-13T08:26:01;102199.91;;;16.53;100.00
63006;BME280;53704;52.532;6.426;2023-05-13T08:28:27;102193.78;;;16.76;100.00
63006;BME280;53704;52.532;6.426;2023-05-13T08:30:56;102192.25;;;16.81;100.00
63006;BME280;53704;52.532;6.426;2023-05-13T08:33:30;102192.09;;;16.91;100.00
63006;BME280;53704;52.532;6.426;2023-05-13T08:35:58;102200.56;;;17.13;100.00
63006;BME280;53704;52.532;6.426;2023-05-13T08:38:24;102195.53;;;17.33;100.00
63006;BME280;53704;52.532;6.426;2023-05-13T08:40:49;102205.53;;;17.49;100.00
63006;BME280;53704;52.532;6.426;2023-05-13T08:43:15;102194.03;;;17.70;100.00
63006;BME280;53704;52.532;6.426;2023-05-13T08:45:45;102198.72;;;17.93;100.00
63006;BME280;53704;52.532;6.426;2023-05-13T08:48:13;102195.66;;;17.87;100.00
63006;BME280;53704;52.532;6.426;2023-05-13T08:50:39;102189.34;;;18.18;100.00
63006;BME280;53704;52.532;6.426;2023-05-13T08:53:05;102191.41;;;18.16;100.00
63006;BME280;53704;52.532;6.426;2023-05-13T08:55:31;102190.94;;;18.13;100.00
63006;BME280;53704;52.532;6.426;2023-05-13T08:57:57;102189.56;;;18.55;100.00
63006;BME280;53704;52.532;6.426;2023-05-13T09:00:22;102187.09;;;18.45;100.00
63006;BME280;53704;52.532;6.426;2023-05-13T09:02:51;102190.81;;;18.52;100.00
63006;BME280;53704;52.532;6.426;2023-05-13T09:05:17;102188.59;;;19.09;100.00
63006;BME280;53704;52.532;6.426;2023-05-13T09:07:42;102187.72;;;18.93;100.00
63006;BME280;53704;52.532;6.426;2023-05-13T09:10:08;102190.66;;;19.22;100.00
63006;BME280;53704;52.532;6.426;2023-05-13T09:12:53;102191.50;;;19.52;100.00
63006;BME280;53704;52.532;6.426;2023-05-13T09:15:25;102186.50;;;19.41;100.00
63006;BME280;53704;52.532;6.426;2023-05-13T09:17:57;102189.47;;;19.61;98.08
63006;BME280;53704;52.532;6.426;2023-05-13T09:20:26;102180.34;;;19.68;96.28
63006;BME280;53704;52.532;6.426;2023-05-13T09:22:56;102179.72;;;20.03;97.55
63006;BME280;53704;52.532;6.426;2023-05-13T09:25:22;102178.00;;;19.80;91.01
63006;BME280;53704;52.532;6.426;2023-05-13T09:27:54;102178.34;;;19.92;86.16
63006;BME280;53704;52.532;6.426;2023-05-13T09:30:24;102170.72;;;19.87;83.23
63006;BME280;53704;52.532;6.426;2023-05-13T09:35:31;102168.13;;;20.01;86.26
63006;BME280;53704;52.532;6.426;2023-05-13T09:37:57;102172.28;;;19.97;84.58
63006;BME280;53704;52.532;6.426;2023-05-13T09:40:23;102162.59;;;20.16;88.07
63006;BME280;53704;52.532;6.426;2023-05-13T09:42:49;102165.13;;;20.39;84.84
63006;BME280;53704;52.532;6.426;2023-05-13T09:45:15;102170.91;;;20.51;74.57
63006;BME280;53704;52.532;6.426;2023-05-13T09:47:42;102172.94;;;20.64;74.78
63006;BME280;53704;52.532;6.426;2023-05-13T09:50:09;102157.22;;;20.72;69.29
63006;BME280;53704;52.532;6.426;2023-05-13T09:52:36;102163.66;;;20.86;73.49
63006;BME280;53704;52.532;6.426;2023-05-13T09:55:06;102167.81;;;21.10;72.05
63006;BME280;53704;52.532;6.426;2023-05-13T09:57:33;102158.19;;;21.28;70.16
63006;BME280;53704;52.532;6.426;2023-05-13T09:59:59;102158.94;;;21.08;69.82
63006;BME280;53704;52.532;6.426;2023-05-13T10:02:26;102162.03;;;21.33;70.90
63006;BME280;53704;52.532;6.426;2023-05-13T10:04:52;102157.00;;;21.37;68.91
63006;BME280;53704;52.532;6.426;2023-05-13T10:07:20;102149.81;;;21.36;69.43
63006;BME280;53704;52.532;6.426;2023-05-13T10:09:51;102157.53;;;21.54;67.39
63006;BME280;53704;52.532;6.426;2023-05-13T10:12:19;102149.13;;;21.69;70.09
63006;BME280;53704;52.532;6.426;2023-05-13T10:14:48;102160.22;;;22.16;67.31
63006;BME280;53704;52.532;6.426;2023-05-13T10:17:15;102156.81;;;22.14;62.97
63006;BME280;53704;52.532;6.426;2023-05-13T10:19:41;102147.09;;;21.98;59.79
63006;BME280;53704;52.532;6.426;2023-05-13T10:22:06;102144.59;;;22.16;59.89
63006;BME280;53704;52.532;6.426;2023-05-13T10:24:33;102144.00;;;22.34;59.57
63006;BME280;53704;52.532;6.426;2023-05-13T10:26:59;102139.13;;;22.76;62.51
63006;BME280;53704;52.532;6.426;2023-05-13T10:29:27;102139.16;;;22.36;60.83
63006;BME280;53704;52.532;6.426;2023-05-13T10:31:54;102141.22;;;22.21;57.58
63006;BME280;53704;52.532;6.426;2023-05-13T10:34:21;102142.53;;;22.45;57.84
63006;BME280;53704;52.532;6.426;2023-05-13T10:39:54;102124.59;;;22.69;55.26
63006;BME280;53704;52.532;6.426;2023-05-13T10:42:36;102134.41;;;23.17;62.03
63006;BME280;53704;52.532;6.426;2023-05-13T10:45:06;102136.75;;;23.14;57.12
63006;BME280;53704;52.532;6.426;2023-05-13T10:47:32;102131.47;;;23.19;57.23
63006;BME280;53704;52.532;6.426;2023-05-13T10:49:58;102128.34;;;22.82;52.17
63006;BME280;53704;52.532;6.426;2023-05-13T10:52:47;102126.13;;;23.37;55.22
63006;BME280;53704;52.532;6.426;2023-05-13T10:55:18;102122.69;;;22.63;50.98
63006;BME280;53704;52.532;6.426;2023-05-13T11:00:32;102123.94;;;22.40;49.57
63006;BME280;53704;52.532;6.426;2023-05-13T11:03:12;102124.34;;;22.84;52.40
63006;BME280;53704;52.532;6.426;2023-05-13T11:06:15;102123.19;;;23.71;53.32
63006;BME280;53704;52.532;6.426;2023-05-13T11:08:43;102121.53;;;23.63;53.48
63006;BME280;53704;52.532;6.426;2023-05-13T11:11:24;102122.47;;;23.43;49.67
63006;BME280;53704;52.532;6.426;2023-05-13T11:14:14;102120.91;;;23.61;51.65
63006;BME280;53704;52.532;6.426;2023-05-13T11:21:56;102106.09;;;24.26;48.99
63006;BME280;53704;52.532;6.426;2023-05-13T11:24:22;102111.50;;;24.39;48.46
63006;BME280;53704;52.532;6.426;2023-05-13T11:26:52;102101.56;;;24.63;46.24
63006;BME280;53704;52.532;6.426;2023-05-13T11:29:34;102098.00;;;24.56;47.07
63006;BME280;53704;52.532;6.426;2023-05-13T11:32:02;102104.88;;;24.22;45.25
63006;BME280;53704;52.532;6.426;2023-05-13T11:34:28;102104.06;;;24.21;44.05
63006;BME280;53704;52.532;6.426;2023-05-13T11:37:06;102092.66;;;23.86;41.62
63006;BME280;53704;52.532;6.426;2023-05-13T11:39:34;102088.81;;;23.93;41.26
63006;BME280;53704;52.532;6.426;2023-05-13T11:42:06;102100.34;;;23.70;42.72
63006;BME280;53704;52.532;6.426;2023-05-13T11:44:34;102098.06;;;23.60;39.80
63006;BME280;53704;52.532;6.426;2023-05-13T11:47:02;102084.19;;;23.87;41.27
63006;BME280;53704;52.532;6.426;2023-05-13T11:49:37;102098.47;;;23.64;43.28
63006;BME280;53704;52.532;6.426;2023-05-13T11:52:04;102100.41;;;23.95;49.17
63006;BME280;53704;52.532;6.426;2023-05-13T11:54:31;102091.41;;;24.82;47.04
63006;BME280;53704;52.532;6.426;2023-05-13T11:56:56;102091.41;;;24.82;42.71
63006;BME280;53704;52.532;6.426;2023-05-13T11:59:22;102089.63;;;24.44;43.08
63006;BME280;53704;52.532;6.426;2023-05-13T12:02:00;102089.34;;;24.52;45.58
63006;BME280;53704;52.532;6.426;2023-05-13T12:04:27;102089.75;;;24.81;40.26
63006;BME280;53704;52.532;6.426;2023-05-13T12:06:56;102084.81;;;25.39;43.02
63006;BME280;53704;52.532;6.426;2023-05-13T12:09:22;102091.56;;;24.87;38.92
63006;BME280;53704;52.532;6.426;2023-05-13T12:11:51;102078.09;;;25.16;41.86
63006;BME280;53704;52.532;6.426;2023-05-13T12:14:18;102077.78;;;25.06;39.55
63006;BME280;53704;52.532;6.426;2023-05-13T12:16:44;102074.63;;;25.70;43.70
63006;BME280;53704;52.532;6.426;2023-05-13T12:19:10;102070.94;;;25.88;39.95
63006;BME280;53704;52.532;6.426;2023-05-13T12:21:36;102084.38;;;24.86;39.00
63006;BME280;53704;52.532;6.426;2023-05-13T12:24:23;102076.69;;;25.44;43.99
63006;BME280;53704;52.532;6.426;2023-05-13T12:26:49;102088.91;;;25.78;40.09
63006;BME280;53704;52.532;6.426;2023-05-13T12:29:14;102086.03;;;25.06;40.24
63006;BME280;53704;52.532;6.426;2023-05-13T12:32:04;102082.22;;;24.70;39.67
63006;BME280;53704;52.532;6.426;2023-05-13T12:34:30;102084.66;;;24.60;39.30
63006;BME280;53704;52.532;6.426;2023-05-13T12:37:08;102089.09;;;24.61;38.65
63006;BME280;53704;52.532;6.426;2023-05-13T12:39:34;102075.38;;;25.77;41.40
63006;BME280;53704;52.532;6.426;2023-05-13T12:41:59;102071.50;;;26.20;36.54
63006;BME280;53704;52.532;6.426;2023-05-13T12:44:25;102085.00;;;25.56;38.02
63006;BME280;53704;52.532;6.426;2023-05-13T12:46:52;102081.63;;;25.84;38.04
63006;BME280;53704;52.532;6.426;2023-05-13T12:49:21;102081.31;;;26.04;40.23
63006;BME280;53704;52.532;6.426;2023-05-13T12:54:55;102078.72;;;24.81;38.53
63006;BME280;53704;52.532;6.426;2023-05-13T12:57:29;102073.06;;;25.74;40.10
63006;BME280;53704;52.532;6.426;2023-05-13T12:59:57;102073.53;;;26.13;39.84
63006;BME280;53704;52.532;6.426;2023-05-13T13:02:39;102059.63;;;26.08;37.81
63006;BME280;53704;52.532;6.426;2023-05-13T13:05:34;102069.22;;;26.64;39.48
63006;BME280;53704;52.532;6.426;2023-05-13T13:08:02;102073.19;;;25.18;37.38
63006;BME280;53704;52.532;6.426;2023-05-13T13:10:34;102076.22;;;26.31;41.68